Portada
METAR-TAF:

METAR-TAF

Aeropuertos :

Aeropuerto de Aviñón-Provenza

Aviñón, Francia

latitud: 43-54-26N, longitud: 004-54-07E, altitud: 38 m

Observación

El informe se hizo hace 18 minutos, a las 13:00 UTC
Viento 20 kt del norte-noroeste
Temperatura 13°C
Humedad 44%
Presión 1028 hPa
Visibilidad 10 km o más
sin nubes por debajo de 1500 m y sin presencia de cumulonimbus.

METAR: LFMV 031300Z AUTO 34020KT CAVOK 13/01 Q1028 BECMG 35025G35KT

Hora: 14:18 (13:18 UTC)

Pronóstico

El informe se hizo hace 5 horas y 18 minutos, a las 08:00 UTC
Pronóstico válido del 03 a las 09 UTC al 04 a las 09 UTC
Viento 25 kt del norte con ráfagas de 35 kt
Visibilidad 10 km o más
sin nubes por debajo de 1500 m y sin presencia de cumulonimbus.
Temporalmente
del 03 a las 18 UTC al 04 a las 09 UTC
Viento 30 kt del norte con ráfagas de 45 kt

TAF: LFMV 030800Z 0309/0409 35025G35KT CAVOK TEMPO 0318/0409 35030G45KT

Observaciones y pronósticos meteorológicos de más de 4000 aeropuertos (mensajes METAR y TAF).

Los puntos amarillos y rojos representan las estaciones disponibles.

Ponga el ratón en el punto deseado para ver el nombre de la estación.

Haga clic para ver las observaciones y los pronósticos meteorológicos.

Para cambiar el mapa : haga clic en los botones verdes con una cruz de color negro para hacer un zoom, en el botón verde con un guión para alejar o en las flechas verdes para mapas adyacentes.


METAR-TAF: